Air Quality Table

TIMESTAMP NO2 SO2 O3 PM10 PM2.5 CO TEMP HUM AIRPRES WS WD NO BENZENE
2022-08-20 00:00 11.94 µg/m3 0.26 µg/m3 46.28 µg/m3 25.99 µg/m3 11.03 µg/m3 0.14 mg/m3 27.13 °C 66.96 % 1,012.49 mbar 3.07 m/s 282.68 Deg 0.81 µg/m3 N/A
2022-08-19 23:00 13.54 µg/m3 0.19 µg/m3 45.04 µg/m3 37.27 µg/m3 12.18 µg/m3 0.14 mg/m3 27.57 °C 63.64 % 1,012.27 mbar 3.31 m/s 277.13 Deg 1.18 µg/m3 N/A
2022-08-19 22:00 23.49 µg/m3 0.15 µg/m3 44.93 µg/m3 61.9 µg/m3 15.9 µg/m3 0.15 mg/m3 27.93 °C 60.73 % 1,011.92 mbar 3.91 m/s 274.05 Deg 1.32 µg/m3 N/A
2022-08-19 21:00 33.27 µg/m3 0.2 µg/m3 40.81 µg/m3 46.96 µg/m3 15.54 µg/m3 0.19 mg/m3 28.36 °C 59.16 % 1,011.87 mbar 3.26 m/s 270.87 Deg 2.27 µg/m3 N/A
2022-08-19 20:00 36.72 µg/m3 0.25 µg/m3 36.03 µg/m3 34.55 µg/m3 12.18 µg/m3 0.24 mg/m3 28.65 °C 57.11 % 1,011.54 mbar 3.18 m/s 271.9 Deg 4.84 µg/m3 N/A
2022-08-19 19:00 28.31 µg/m3 0.23 µg/m3 37.58 µg/m3 47.67 µg/m3 13.96 µg/m3 0.24 mg/m3 29.62 °C 48.22 % 1,010.80 mbar 3.32 m/s 265.27 Deg 3.85 µg/m3 N/A
2022-08-19 18:00 29.3 µg/m3 0.26 µg/m3 34.64 µg/m3 45.27 µg/m3 13.16 µg/m3 0.25 mg/m3 30.68 °C 41.58 % 1,010.66 mbar 3.07 m/s 265.27 Deg 4.35 µg/m3 N/A
2022-08-19 17:00 25.84 µg/m3 0.23 µg/m3 35.36 µg/m3 72.29 µg/m3 18.43 µg/m3 0.25 mg/m3 30.62 °C 47.96 % 1,010.95 mbar 2.99 m/s 278.68 Deg 4.28 µg/m3 N/A
2022-08-19 16:00 20 µg/m3 0.24 µg/m3 42.15 µg/m3 56.79 µg/m3 14.96 µg/m3 0.24 mg/m3 31.19 °C 56.4 % 1,010.78 mbar 3.34 m/s 298.28 Deg 7.12 µg/m3 N/A
2022-08-19 15:00 19.2 µg/m3 0.23 µg/m3 44.05 µg/m3 51.37 µg/m3 17.35 µg/m3 0.24 mg/m3 31.57 °C 58.65 % 1,010.65 mbar 3.08 m/s 306.17 Deg 4.17 µg/m3 N/A
2022-08-19 14:00 18.49 µg/m3 0.27 µg/m3 42.12 µg/m3 66.59 µg/m3 22.97 µg/m3 0.24 mg/m3 32.05 °C 60.57 % 1,010.94 mbar 2.64 m/s 271.35 Deg 4.03 µg/m3 N/A
2022-08-19 13:00 20.93 µg/m3 0.23 µg/m3 37.1 µg/m3 43.42 µg/m3 19.21 µg/m3 0.26 mg/m3 31.12 °C 66.25 % 1,011.01 mbar 2.47 m/s 288.77 Deg 5.52 µg/m3 N/A
2022-08-19 12:00 27.4 µg/m3 0.43 µg/m3 30.51 µg/m3 40.57 µg/m3 19.43 µg/m3 0.4 mg/m3 31.22 °C 67.2 % 1,011.04 mbar 2.29 m/s 33.67 Deg 20.79 µg/m3 N/A
2022-08-19 11:00 22.54 µg/m3 0.33 µg/m3 38.94 µg/m3 50.1 µg/m3 21.09 µg/m3 0.31 mg/m3 31.28 °C 67.84 % 1,011.58 mbar 1.8 m/s 304.43 Deg 9.64 µg/m3 N/A
2022-08-19 10:00 25.67 µg/m3 0.3 µg/m3 38.77 µg/m3 54.86 µg/m3 23.8 µg/m3 0.33 mg/m3 30.79 °C 71.15 % 1,011.53 mbar 1.88 m/s 301.75 Deg 10.23 µg/m3 N/A
2022-08-19 09:00 22.25 µg/m3 0.26 µg/m3 35.53 µg/m3 67.87 µg/m3 27.89 µg/m3 0.3 mg/m3 30.57 °C 72.03 % 1,011.53 mbar 2.09 m/s 254.67 Deg 5.05 µg/m3 N/A
2022-08-19 08:00 36.25 µg/m3 0.27 µg/m3 27.77 µg/m3 54.74 µg/m3 26.61 µg/m3 0.32 mg/m3 29.88 °C 76.7 % 1,010.99 mbar 1.81 m/s 277.02 Deg 8.44 µg/m3 N/A
2022-08-19 07:00 37.48 µg/m3 0.4 µg/m3 11.14 µg/m3 57.97 µg/m3 24.31 µg/m3 0.41 mg/m3 29.52 °C 74.1 % 1,010.81 mbar 1.22 m/s 231.68 Deg 15.57 µg/m3 N/A
2022-08-19 06:00 28.49 µg/m3 0.33 µg/m3 12.19 µg/m3 32.95 µg/m3 21.97 µg/m3 0.35 mg/m3 28.84 °C 80.22 % 1,010.40 mbar 0.86 m/s 213.27 Deg 6.54 µg/m3 N/A
2022-08-19 05:00 13.66 µg/m3 0.21 µg/m3 22.76 µg/m3 30.08 µg/m3 20.05 µg/m3 0.22 mg/m3 28.99 °C 77.83 % 1,010.24 mbar 1.08 m/s 200.03 Deg 0.8 µg/m3 N/A
2022-08-19 04:00 12.82 µg/m3 0.29 µg/m3 17.75 µg/m3 36.21 µg/m3 19.85 µg/m3 0.22 mg/m3 29.2 °C 73.94 % 1,009.94 mbar 1.3 m/s 242.37 Deg 1.68 µg/m3 N/A
2022-08-19 03:00 25.04 µg/m3 0.3 µg/m3 12.24 µg/m3 47.71 µg/m3 20.36 µg/m3 0.17 mg/m3 29.75 °C 69.14 % 1,009.88 mbar 0.89 m/s 252.13 Deg 5.08 µg/m3 N/A

It is to be noted that the data is provisional and subject to quality assurance procedures. For validated data kindly refer your request to contact.air@era.org.mt